createdAt,value
2019-02-23T00:00:08.908Z,30.20
2019-02-23T00:02:40.410Z,40.97
2019-02-23T00:05:11.627Z,33.77
2019-02-23T00:07:43.032Z,35.43
2019-02-23T00:10:14.406Z,36.00
2019-02-23T00:12:45.688Z,38.13
2019-02-23T00:15:17.102Z,44.27
2019-02-23T00:17:48.376Z,31.30
2019-02-23T00:20:19.774Z,37.43
2019-02-23T00:22:51.238Z,38.73
2019-02-23T00:25:26.029Z,32.33
2019-02-23T00:27:57.501Z,30.50
2019-02-23T00:30:29.017Z,31.00
2019-02-23T00:33:00.389Z,41.90
2019-02-23T00:35:31.824Z,36.27
2019-02-23T00:38:03.140Z,37.60
2019-02-23T00:40:34.454Z,41.33
2019-02-23T00:43:05.909Z,37.00
2019-02-23T00:45:37.235Z,34.40
2019-02-23T00:48:08.778Z,36.90
2019-02-23T00:50:40.239Z,36.80
2019-02-23T00:53:11.627Z,33.80
2019-02-23T00:55:42.992Z,28.83
2019-02-23T00:58:14.383Z,48.37
2019-02-23T01:00:45.604Z,33.47
2019-02-23T01:06:06.466Z,29.67
2019-02-23T01:08:37.853Z,35.70
2019-02-23T01:11:09.151Z,42.33
2019-02-23T01:15:58.396Z,35.13
2019-02-23T01:18:29.381Z,35.63
2019-02-23T01:21:00.718Z,40.10
2019-02-23T01:23:32.177Z,34.10
2019-02-23T01:26:05.315Z,36.53
2019-02-23T01:28:36.637Z,33.13
2019-02-23T01:31:11.798Z,37.10
2019-02-23T01:33:42.978Z,36.93
2019-02-23T01:36:14.507Z,35.33
2019-02-23T01:38:46.203Z,31.57
2019-02-23T01:41:17.551Z,33.33
2019-02-23T01:43:48.975Z,37.70
2019-02-23T01:46:20.618Z,29.13
2019-02-23T01:48:52.102Z,27.67
2019-02-23T01:51:23.535Z,32.93
2019-02-23T01:53:54.865Z,34.83
2019-02-23T01:56:27.162Z,31.40
2019-02-23T01:58:58.609Z,27.87
2019-02-23T02:01:29.886Z,27.60
2019-02-23T02:04:01.392Z,29.37
2019-02-23T02:06:33.689Z,32.47
2019-02-23T02:09:05.690Z,29.53
2019-02-23T02:11:37.548Z,33.73
2019-02-23T02:14:09.070Z,35.43
2019-02-23T02:16:40.587Z,32.83
2019-02-23T02:19:14.311Z,29.63
2019-02-23T02:21:45.892Z,34.00
2019-02-23T02:24:17.216Z,32.50
2019-02-23T02:26:51.873Z,29.20
2019-02-23T02:29:25.586Z,27.80
2019-02-23T02:31:57.063Z,30.00
2019-02-23T02:34:28.393Z,30.27
2019-02-23T02:36:59.562Z,26.90
2019-02-23T02:39:30.867Z,27.53
2019-02-23T02:42:02.083Z,32.57
2019-02-23T02:44:36.233Z,32.47
2019-02-23T02:47:07.552Z,30.67
2019-02-23T02:49:38.915Z,31.50
2019-02-23T02:52:10.224Z,26.47
2019-02-23T02:54:41.535Z,28.83
2019-02-23T02:57:12.837Z,28.53
2019-02-23T02:59:44.114Z,31.73
2019-02-23T03:02:15.404Z,27.27
2019-02-23T03:04:46.679Z,29.83
2019-02-23T03:07:18.087Z,26.83
2019-02-23T03:09:49.361Z,27.13
2019-02-23T03:12:20.795Z,28.13
2019-02-23T03:14:51.997Z,31.93
2019-02-23T03:17:23.373Z,29.27
2019-02-23T03:19:54.743Z,28.27
2019-02-23T03:22:26.083Z,30.90
2019-02-23T03:24:57.558Z,39.00
2019-02-23T03:27:28.854Z,28.90
2019-02-23T03:30:00.395Z,31.93
2019-02-23T03:32:50.653Z,32.90
2019-02-23T03:35:22.007Z,37.30
2019-02-23T03:37:53.241Z,36.70
2019-02-23T03:40:24.544Z,52.30
2019-02-23T03:42:55.793Z,33.60
2019-02-23T03:45:27.140Z,41.57
2019-02-23T03:47:58.399Z,35.03
2019-02-23T03:50:29.691Z,35.77
2019-02-23T03:53:00.953Z,47.30
2019-02-23T03:55:32.344Z,33.20
2019-02-23T03:58:03.733Z,26.97
2019-02-23T04:00:35.091Z,31.10
2019-02-23T04:03:06.366Z,28.87
2019-02-23T04:05:37.646Z,29.63
2019-02-23T04:08:09.091Z,25.87
2019-02-23T04:10:40.356Z,31.30
2019-02-23T04:13:11.621Z,33.17
2019-02-23T04:15:42.944Z,26.10
2019-02-23T04:18:14.265Z,27.00
2019-02-23T04:20:45.562Z,26.00
2019-02-23T04:23:16.747Z,26.77
2019-02-23T04:25:48.113Z,21.30
2019-02-23T04:28:19.417Z,22.97
2019-02-23T04:30:50.814Z,22.47
2019-02-23T04:33:22.082Z,26.07
2019-02-23T04:35:53.324Z,35.50
2019-02-23T04:38:24.684Z,27.00
2019-02-23T04:40:56.085Z,28.20
2019-02-23T04:43:27.504Z,29.40
2019-02-23T04:45:58.887Z,27.97
2019-02-23T04:48:30.163Z,32.20
2019-02-23T04:51:13.445Z,31.43
2019-02-23T04:53:34.490Z,33.70
2019-02-23T04:56:05.747Z,35.23
2019-02-23T04:58:37.039Z,29.17
2019-02-23T05:01:08.368Z,37.07
2019-02-23T05:03:39.672Z,40.00
2019-02-23T05:06:11.210Z,33.40
2019-02-23T05:08:42.396Z,34.33
2019-02-23T05:11:13.720Z,30.53
2019-02-23T05:13:45.015Z,38.90
2019-02-23T05:16:16.322Z,30.67
2019-02-23T05:18:47.593Z,37.13
2019-02-23T05:21:26.186Z,37.70
2019-02-23T05:23:51.818Z,34.60
2019-02-23T05:26:23.165Z,36.77
2019-02-23T05:28:54.409Z,35.60
2019-02-23T05:31:25.603Z,39.63
2019-02-23T05:33:56.941Z,43.13
2019-02-23T05:36:28.250Z,39.30
2019-02-23T05:38:59.426Z,38.67
2019-02-23T05:41:30.651Z,37.27
2019-02-23T05:44:01.905Z,40.00
2019-02-23T05:46:30.526Z,36.27
2019-02-23T05:49:03.218Z,38.03
2019-02-23T05:51:38.723Z,36.10
2019-02-23T05:54:07.498Z,34.77
2019-02-23T05:56:38.736Z,34.37
2019-02-23T05:59:10.047Z,35.27
2019-02-23T06:01:41.447Z,38.87
2019-02-23T06:04:12.737Z,40.93
2019-02-23T06:06:44.089Z,32.80
2019-02-23T06:09:15.430Z,39.60
2019-02-23T06:11:46.751Z,36.17
2019-02-23T06:14:18.063Z,44.40
2019-02-23T06:16:49.223Z,48.73
2019-02-23T06:19:20.453Z,42.67
2019-02-23T06:21:54.288Z,39.93
2019-02-23T06:24:24.675Z,45.80
2019-02-23T06:26:56.015Z,48.30
2019-02-23T06:29:27.332Z,45.70
2019-02-23T06:31:58.780Z,38.17
2019-02-23T06:34:30.042Z,43.37
2019-02-23T06:37:01.433Z,44.27
2019-02-23T06:39:32.791Z,42.13
2019-02-23T06:42:04.108Z,46.63
2019-02-23T06:44:35.384Z,44.77
2019-02-23T06:47:06.682Z,41.57
2019-02-23T06:49:38.005Z,45.10
2019-02-23T06:52:09.336Z,48.40
2019-02-23T06:54:40.620Z,47.97
2019-02-23T06:57:11.911Z,40.53
2019-02-23T06:59:43.171Z,46.37
2019-02-23T07:02:14.489Z,50.47
2019-02-23T07:04:45.812Z,37.70
2019-02-23T07:07:17.297Z,40.87
2019-02-23T07:09:48.649Z,52.37
2019-02-23T07:12:19.988Z,42.33
2019-02-23T07:14:51.255Z,56.57
2019-02-23T07:17:22.523Z,38.90
2019-02-23T07:19:53.716Z,48.30
2019-02-23T07:22:25.024Z,44.20
2019-02-23T07:24:56.316Z,40.13
2019-02-23T07:27:27.628Z,40.07
2019-02-23T07:29:58.858Z,37.33
2019-02-23T07:32:30.130Z,41.30
2019-02-23T07:35:01.463Z,34.27
2019-02-23T07:37:32.797Z,36.40
2019-02-23T07:40:04.121Z,43.80
2019-02-23T07:42:35.293Z,33.57
2019-02-23T07:45:06.829Z,41.73
2019-02-23T07:47:38.164Z,41.13
2019-02-23T07:50:10.739Z,35.17
2019-02-23T07:52:42.093Z,34.43
2019-02-23T07:55:13.438Z,32.77
2019-02-23T07:57:44.889Z,30.33
2019-02-23T08:00:35.136Z,34.67
2019-02-23T08:03:06.896Z,34.60
2019-02-23T08:05:38.121Z,26.53
2019-02-23T08:08:12.469Z,28.90
2019-02-23T08:10:43.917Z,27.93
2019-02-23T08:13:15.231Z,47.27
2019-02-23T08:15:46.573Z,43.23
2019-02-23T08:18:17.953Z,42.23
2019-02-23T08:20:49.263Z,29.50
2019-02-23T08:23:20.643Z,29.67
2019-02-23T08:25:51.997Z,21.07
2019-02-23T08:28:23.341Z,21.50
2019-02-23T08:30:54.625Z,20.87
2019-02-23T08:33:25.992Z,24.63
2019-02-23T08:35:57.262Z,17.10
2019-02-23T08:38:28.703Z,17.20
2019-02-23T08:40:59.957Z,24.83
2019-02-23T08:43:31.245Z,22.83
2019-02-23T08:46:02.572Z,22.63
2019-02-23T08:48:33.908Z,26.27
2019-02-23T08:51:05.286Z,28.63
2019-02-23T08:53:36.549Z,29.90
2019-02-23T08:56:07.879Z,23.00
2019-02-23T08:58:39.046Z,19.07
2019-02-23T09:01:10.354Z,27.53
2019-02-23T09:03:41.675Z,17.80
2019-02-23T09:06:12.965Z,20.83
2019-02-23T09:08:44.261Z,20.27
2019-02-23T09:11:15.491Z,19.60
2019-02-23T09:13:46.822Z,18.50
2019-02-23T09:16:18.115Z,17.40
2019-02-23T09:18:49.503Z,16.27
2019-02-23T09:21:20.872Z,16.77
2019-02-23T09:23:52.121Z,17.70
2019-02-23T09:26:23.518Z,12.20
2019-02-23T09:28:54.942Z,20.53
2019-02-23T09:31:26.485Z,18.50
2019-02-23T09:33:57.804Z,15.47
2019-02-23T09:36:29.179Z,25.00
2019-02-23T09:39:00.536Z,19.50
2019-02-23T09:41:31.852Z,19.60
2019-02-23T09:44:03.131Z,17.53
2019-02-23T09:46:34.480Z,16.67
2019-02-23T09:49:05.816Z,18.43
2019-02-23T09:51:37.127Z,17.67
2019-02-23T09:54:08.510Z,14.13
2019-02-23T09:56:39.831Z,15.07
2019-02-23T10:23:50.057Z,16.67
2019-02-23T10:26:21.398Z,13.57
2019-02-23T10:28:52.797Z,16.37
2019-02-23T10:31:27.740Z,15.20
2019-02-23T10:33:59.102Z,15.23
2019-02-23T10:36:30.615Z,19.23
2019-02-23T10:39:01.897Z,15.40
2019-02-23T10:41:33.095Z,18.57
2019-02-23T10:44:04.438Z,14.60
2019-02-23T10:46:35.751Z,15.70
2019-02-23T10:49:07.109Z,15.90
2019-02-23T10:51:38.398Z,15.70
2019-02-23T10:54:09.869Z,13.13
2019-02-23T10:56:41.241Z,14.47
2019-02-23T10:59:12.660Z,16.17
2019-02-23T11:01:44.076Z,11.90
2019-02-23T11:04:15.480Z,15.03
2019-02-23T11:06:46.721Z,12.93
2019-02-23T11:09:23.109Z,12.43
2019-02-23T11:11:54.404Z,10.30
2019-02-23T11:14:25.670Z,13.40
2019-02-23T11:16:57.120Z,16.83
2019-02-23T11:19:28.372Z,12.20
2019-02-23T11:21:59.885Z,14.40
2019-02-23T11:24:31.761Z,10.60
2019-02-23T11:27:03.121Z,12.37
2019-02-23T11:29:34.470Z,14.00
2019-02-23T11:32:05.778Z,12.33
2019-02-23T11:34:39.590Z,13.40
2019-02-23T11:37:11.036Z,14.50
2019-02-23T11:39:42.432Z,11.67
2019-02-23T11:42:13.799Z,11.20
2019-02-23T11:44:45.201Z,10.13
2019-02-23T11:47:16.539Z,13.57
2019-02-23T11:49:49.235Z,11.93
2019-02-23T11:52:20.631Z,13.23
2019-02-23T11:54:51.886Z,10.07
2019-02-23T11:57:23.238Z,15.93
2019-02-23T11:59:56.994Z,12.23
2019-02-23T12:02:28.242Z,12.57
2019-02-23T12:04:59.537Z,12.10
2019-02-23T12:07:31.045Z,10.13
2019-02-23T12:10:02.363Z,11.97
2019-02-23T12:12:34.016Z,8.03
2019-02-23T12:15:05.624Z,10.20
2019-02-23T12:17:47.780Z,11.30
2019-02-23T12:20:20.261Z,9.00
2019-02-23T12:22:51.454Z,11.03
2019-02-23T12:25:22.831Z,10.80
2019-02-23T12:28:10.135Z,11.07
2019-02-23T12:30:41.629Z,11.33
2019-02-23T12:33:12.744Z,10.77
2019-02-23T12:35:44.745Z,16.00
2019-02-23T12:38:15.929Z,11.13
2019-02-23T12:40:47.189Z,10.10
2019-02-23T12:43:18.470Z,12.60
2019-02-23T12:45:49.748Z,12.87
2019-02-23T12:48:21.024Z,12.93
2019-02-23T12:50:52.322Z,9.50
2019-02-23T12:53:23.605Z,11.20
2019-02-23T12:55:54.864Z,14.30
2019-02-23T12:58:26.174Z,11.67
2019-02-23T13:00:57.448Z,11.33
2019-02-23T13:03:28.813Z,12.23
2019-02-23T13:06:00.067Z,10.73
2019-02-23T13:09:14.777Z,10.73
2019-02-23T13:11:57.084Z,19.00
2019-02-23T13:15:06.328Z,7.40
2019-02-23T13:18:34.333Z,9.50
2019-02-23T13:22:10.797Z,11.20
2019-02-23T13:25:42.092Z,7.47
2019-02-23T13:29:10.082Z,9.87
2019-02-23T13:32:55.336Z,13.80
2019-02-23T13:36:03.292Z,11.10
2019-02-23T13:39:41.704Z,9.57
2019-02-23T13:42:32.982Z,9.47
2019-02-23T13:46:26.204Z,5.90
2019-02-23T13:49:41.958Z,9.47
2019-02-23T13:52:53.043Z,9.67
2019-02-23T13:56:15.968Z,11.87
2019-02-23T13:59:52.322Z,8.07
2019-02-23T14:03:21.011Z,9.20
2019-02-23T14:06:11.293Z,8.77
2019-02-23T14:09:45.506Z,8.03
2019-02-23T14:13:04.322Z,9.00
2019-02-23T14:16:54.836Z,8.60
2019-02-23T14:20:19.491Z,9.50
2019-02-23T14:23:56.753Z,9.43
2019-02-23T14:27:44.661Z,7.57
2019-02-23T14:31:03.586Z,9.07
2019-02-23T14:34:37.096Z,9.17
2019-02-23T14:38:05.982Z,11.87
2019-02-23T14:41:35.389Z,8.30
2019-02-23T14:44:55.801Z,9.60
2019-02-23T14:47:57.941Z,16.47
2019-02-23T14:51:17.943Z,9.13
2019-02-23T14:54:34.061Z,9.10
2019-02-23T14:58:14.019Z,21.73
2019-02-23T15:02:12.072Z,10.63
2019-02-23T15:05:14.532Z,8.30
2019-02-23T15:08:42.856Z,9.00
2019-02-23T15:12:05.211Z,17.57
2019-02-23T15:15:56.035Z,13.00
2019-02-23T15:19:03.640Z,13.13
2019-02-23T15:22:20.352Z,14.60
2019-02-23T15:25:59.467Z,11.73
2019-02-23T15:29:26.784Z,14.67
2019-02-23T15:33:11.638Z,17.70
2019-02-23T15:36:37.674Z,20.00
2019-02-23T15:40:02.997Z,23.07
2019-02-23T15:43:32.861Z,15.73
2019-02-23T15:47:11.689Z,17.27
2019-02-23T15:49:42.927Z,16.63
2019-02-23T15:52:14.409Z,18.20
2019-02-23T15:54:45.921Z,15.47
2019-02-23T15:57:19.221Z,14.13
2019-02-23T15:59:50.154Z,15.60
2019-02-23T16:02:24.669Z,12.70
2019-02-23T16:04:56.024Z,15.83
2019-02-23T16:07:28.824Z,16.00
2019-02-23T16:10:00.219Z,17.73
2019-02-23T16:12:31.509Z,16.10
2019-02-23T16:15:02.803Z,16.00
2019-02-23T16:17:34.157Z,15.67
2019-02-23T16:20:05.792Z,18.70
2019-02-23T16:22:37.155Z,22.20
2019-02-23T16:25:09.336Z,15.60
2019-02-23T16:27:40.685Z,13.63
2019-02-23T16:30:12.407Z,16.40
2019-02-23T16:32:43.629Z,17.90
2019-02-23T16:35:14.977Z,18.80
2019-02-23T16:37:57.498Z,16.80
2019-02-23T16:40:31.715Z,15.90
2019-02-23T16:43:04.292Z,18.30
2019-02-23T16:45:35.672Z,16.73
2019-02-23T16:48:07.150Z,18.60
2019-02-23T16:50:38.609Z,18.07
2019-02-23T16:53:10.014Z,21.33
2019-02-23T16:55:50.557Z,17.50
2019-02-23T16:58:14.414Z,26.90
2019-02-23T17:00:45.600Z,21.23
2019-02-23T17:03:16.971Z,23.30
2019-02-23T17:05:48.542Z,16.33
2019-02-23T17:08:23.391Z,16.23
2019-02-23T17:10:55.453Z,22.13
2019-02-23T17:13:26.839Z,19.87
2019-02-23T17:15:58.284Z,27.70
2019-02-23T17:18:29.674Z,26.07
2019-02-23T17:21:01.006Z,33.17
2019-02-23T17:23:34.701Z,39.87
2019-02-23T17:26:06.263Z,31.23
2019-02-23T17:28:37.760Z,28.90
2019-02-23T17:31:09.365Z,21.30
2019-02-23T17:33:40.622Z,22.57
2019-02-23T17:36:26.320Z,24.60
2019-02-23T17:38:57.598Z,22.83
2019-02-23T17:41:28.954Z,21.80
2019-02-23T17:44:02.809Z,22.90
2019-02-23T17:46:35.311Z,27.17
2019-02-23T17:49:10.326Z,23.23
2019-02-23T17:51:44.997Z,19.73
2019-02-23T17:54:21.764Z,24.17
2019-02-23T17:56:54.682Z,25.60
2019-02-23T17:59:26.521Z,23.07
2019-02-23T18:01:59.765Z,27.37
2019-02-23T18:04:31.226Z,26.30
2019-02-23T18:07:02.639Z,23.57
2019-02-23T18:09:34.221Z,28.50
2019-02-23T18:12:08.718Z,22.10
2019-02-23T18:14:40.041Z,23.23
2019-02-23T18:17:11.558Z,21.07
2019-02-23T18:19:43.021Z,26.30
2019-02-23T18:22:14.327Z,23.90
2019-02-23T18:24:47.926Z,23.27
2019-02-23T18:27:19.625Z,23.43
2019-02-23T18:29:52.836Z,20.67
2019-02-23T18:32:24.373Z,25.77
2019-02-23T18:35:02.290Z,26.93
2019-02-23T18:37:35.743Z,27.13
2019-02-23T18:40:07.562Z,30.50
2019-02-23T18:42:39.098Z,36.40
2019-02-23T18:45:12.726Z,31.53
2019-02-23T18:47:48.187Z,31.60
2019-02-23T18:50:24.203Z,37.40
2019-02-23T18:52:57.053Z,36.77
2019-02-23T18:55:28.535Z,34.93
2019-02-23T18:58:05.031Z,33.63
2019-02-23T19:00:36.680Z,31.80
2019-02-23T19:08:09.814Z,30.60
2019-02-23T19:10:41.170Z,24.30
2019-02-23T19:13:18.470Z,28.80
2019-02-23T19:15:50.994Z,28.40
2019-02-23T19:18:23.225Z,25.50
2019-02-23T19:20:56.280Z,25.10
2019-02-23T19:23:32.759Z,30.60
2019-02-23T19:26:04.103Z,26.30
2019-02-23T19:28:44.068Z,32.50
2019-02-23T19:31:21.438Z,24.87
2019-02-23T19:33:58.557Z,22.77
2019-02-23T19:36:30.915Z,25.93
2019-02-23T19:39:07.239Z,27.80
2019-02-23T19:41:40.567Z,26.63
2019-02-23T19:44:11.988Z,24.80
2019-02-23T19:46:52.606Z,29.50
2019-02-23T19:49:23.953Z,18.93
2019-02-23T19:51:56.614Z,21.37
2019-02-23T19:54:28.390Z,25.40
2019-02-23T19:57:02.684Z,25.03
2019-02-23T19:59:35.513Z,21.07
2019-02-23T20:02:09.494Z,23.00
2019-02-23T20:04:43.001Z,20.27
2019-02-23T20:07:13.974Z,18.23
2019-02-23T20:09:45.414Z,17.60
2019-02-23T20:12:19.281Z,22.23
2019-02-23T20:14:50.642Z,16.33
2019-02-23T20:17:22.099Z,24.77
2019-02-23T20:19:55.438Z,17.77
2019-02-23T20:22:26.931Z,18.93
2019-02-23T20:24:58.308Z,16.83
2019-02-23T20:27:33.674Z,18.50
2019-02-23T20:30:04.992Z,19.93
2019-02-23T20:32:36.322Z,22.13
2019-02-23T20:35:08.036Z,17.80
2019-02-23T20:37:40.661Z,20.87
2019-02-23T20:40:12.301Z,19.60
2019-02-23T20:42:43.734Z,15.13
2019-02-23T20:45:15.268Z,19.70
2019-02-23T20:47:46.627Z,17.27
2019-02-23T20:50:18.082Z,18.97
2019-02-23T20:52:49.419Z,15.87
2019-02-23T20:55:26.581Z,12.97
2019-02-23T20:57:58.019Z,16.30
2019-02-23T21:00:29.396Z,16.63
2019-02-23T21:03:03.306Z,15.70
2019-02-23T21:05:33.872Z,15.13
2019-02-23T21:08:06.686Z,17.63
2019-02-23T21:10:38.161Z,13.70
2019-02-23T21:13:09.488Z,13.93
2019-02-23T21:15:40.784Z,12.73
2019-02-23T21:18:16.543Z,13.10
2019-02-23T21:20:51.773Z,11.17
2019-02-23T21:23:30.330Z,9.47
2019-02-23T21:26:01.768Z,9.63
2019-02-23T21:28:34.429Z,16.83
2019-02-23T21:31:05.803Z,12.03
2019-02-23T21:33:42.153Z,14.20
2019-02-23T21:36:13.539Z,9.50
2019-02-23T21:38:44.949Z,14.40
2019-02-23T21:41:16.365Z,10.20
2019-02-23T21:43:51.859Z,11.80
2019-02-23T21:46:23.277Z,11.83
2019-02-23T21:48:54.839Z,15.90
2019-02-23T21:51:26.728Z,12.80
2019-02-23T21:53:58.180Z,12.20
2019-02-23T21:56:29.871Z,12.50
2019-02-23T21:59:01.187Z,13.67
2019-02-23T22:01:36.461Z,10.80
2019-02-23T22:04:08.869Z,11.30
2019-02-23T22:06:40.162Z,10.67
2019-02-23T22:09:11.807Z,18.10
2019-02-23T22:11:43.212Z,13.07
2019-02-23T22:14:14.422Z,13.63
2019-02-23T22:16:48.417Z,14.37
2019-02-23T22:19:21.832Z,13.20
2019-02-23T22:21:52.664Z,12.53
2019-02-23T22:24:24.033Z,12.03
2019-02-23T22:26:55.417Z,13.10
2019-02-23T22:29:26.790Z,11.50
2019-02-23T22:31:59.485Z,16.70
2019-02-23T22:34:30.569Z,15.17
2019-02-23T22:37:01.930Z,15.63
2019-02-23T22:39:33.216Z,11.27
2019-02-23T22:42:04.476Z,14.90
2019-02-23T22:44:35.792Z,10.07
2019-02-23T22:47:07.260Z,13.20
2019-02-23T22:49:38.661Z,16.10
2019-02-23T22:52:09.790Z,13.20
2019-02-23T22:54:40.832Z,12.97
2019-02-23T22:57:12.066Z,13.10
2019-02-23T22:59:43.181Z,15.70
2019-02-23T23:02:14.333Z,11.97
2019-02-23T23:04:45.605Z,12.80
2019-02-23T23:07:16.773Z,16.63
2019-02-23T23:09:47.937Z,16.20
2019-02-23T23:12:21.924Z,10.90
2019-02-23T23:14:53.299Z,14.60
2019-02-23T23:17:24.570Z,13.80
2019-02-23T23:19:58.961Z,14.73
2019-02-23T23:22:30.247Z,13.03
2019-02-23T23:25:01.435Z,12.27
2019-02-23T23:27:32.796Z,12.70
2019-02-23T23:30:04.128Z,14.10
2019-02-23T23:35:10.419Z,16.67
2019-02-23T23:37:41.661Z,10.87
2019-02-23T23:40:12.921Z,14.97
2019-02-23T23:42:44.061Z,17.97
2019-02-23T23:45:15.347Z,17.77
2019-02-23T23:47:46.651Z,15.13
2019-02-23T23:50:17.909Z,20.00
2019-02-23T23:52:49.247Z,14.73
2019-02-23T23:55:20.524Z,17.50
2019-02-23T23:57:58.061Z,13.90
